createdAt,value
2019-02-10T00:00:02.276Z,74.57
2019-02-10T00:01:02.265Z,74.05
2019-02-10T00:02:02.253Z,74.50
2019-02-10T00:03:02.280Z,74.67
2019-02-10T00:04:02.234Z,74.88
2019-02-10T00:05:02.221Z,74.50
2019-02-10T00:06:02.210Z,75.70
2019-02-10T00:07:02.202Z,74.81
2019-02-10T00:08:02.195Z,74.77
2019-02-10T00:09:02.187Z,75.95
2019-02-10T00:10:02.167Z,75.29
2019-02-10T00:11:02.156Z,74.26
2019-02-10T00:12:02.145Z,74.15
2019-02-10T00:13:02.136Z,74.53
2019-02-10T00:14:02.132Z,75.39
2019-02-10T00:15:02.112Z,74.67
2019-02-10T00:16:02.104Z,75.09
2019-02-10T00:17:02.090Z,74.84
2019-02-10T00:18:02.080Z,74.77
2019-02-10T00:19:02.079Z,75.29
2019-02-10T00:20:02.062Z,75.19
2019-02-10T00:21:02.051Z,75.39
2019-02-10T00:22:02.037Z,74.26
2019-02-10T00:23:02.026Z,74.67
2019-02-10T00:24:02.029Z,74.15
2019-02-10T00:25:02.008Z,74.46
2019-02-10T00:26:01.999Z,74.77
2019-02-10T00:27:01.984Z,75.19
2019-02-10T00:28:01.974Z,75.43
2019-02-10T00:29:01.971Z,74.81
2019-02-10T00:30:01.951Z,74.08
2019-02-10T00:31:01.942Z,74.91
2019-02-10T00:32:01.936Z,75.22
2019-02-10T00:33:01.919Z,75.26
2019-02-10T00:34:01.919Z,75.53
2019-02-10T00:35:01.901Z,75.36
2019-02-10T00:36:01.891Z,74.84
2019-02-10T00:37:01.881Z,75.88
2019-02-10T00:38:01.868Z,75.36
2019-02-10T00:39:01.882Z,76.09
2019-02-10T00:40:01.851Z,75.98
2019-02-10T00:41:01.837Z,75.26
2019-02-10T00:42:01.828Z,75.88
2019-02-10T00:43:01.816Z,76.09
2019-02-10T00:44:01.801Z,76.29
2019-02-10T00:45:01.799Z,76.60
2019-02-10T00:46:01.786Z,76.74
2019-02-10T00:47:01.770Z,76.64
2019-02-10T00:48:01.763Z,76.53
2019-02-10T00:49:01.777Z,76.64
2019-02-10T00:50:01.755Z,77.05
2019-02-10T00:51:01.727Z,77.05
2019-02-10T00:52:01.721Z,77.15
2019-02-10T00:53:01.705Z,77.50
2019-02-10T00:54:01.694Z,77.36
2019-02-10T00:55:01.699Z,77.15
2019-02-10T00:56:01.672Z,76.84
2019-02-10T00:57:01.664Z,77.47
2019-02-10T00:58:01.652Z,77.12
2019-02-10T00:59:01.641Z,76.70
2019-02-10T01:00:01.639Z,76.60
2019-02-10T01:01:01.622Z,76.50
2019-02-10T01:02:01.632Z,76.81
2019-02-10T01:03:01.598Z,76.29
2019-02-10T01:04:01.588Z,76.29
2019-02-10T01:05:01.597Z,76.36
2019-02-10T01:06:01.568Z,75.95
2019-02-10T01:07:01.559Z,76.26
2019-02-10T01:08:01.545Z,76.15
2019-02-10T01:09:01.534Z,76.18
2019-02-10T01:10:01.530Z,76.70
2019-02-10T01:11:01.515Z,76.18
2019-02-10T01:12:01.508Z,76.91
2019-02-10T01:13:01.490Z,77.01
2019-02-10T01:14:01.481Z,77.33
2019-02-10T01:15:01.479Z,77.43
2019-02-10T01:16:01.458Z,77.22
2019-02-10T01:17:01.448Z,77.22
2019-02-10T01:18:01.458Z,77.01
2019-02-10T01:19:01.427Z,77.22
2019-02-10T01:20:01.424Z,77.22
2019-02-10T01:21:01.404Z,77.08
2019-02-10T01:22:01.393Z,77.33
2019-02-10T01:23:01.383Z,77.39
2019-02-10T01:24:01.373Z,77.39
2019-02-10T01:25:01.377Z,77.39
2019-02-10T01:26:01.351Z,77.29
2019-02-10T01:27:01.341Z,77.53
2019-02-10T01:28:01.328Z,78.11
2019-02-10T01:29:01.319Z,77.53
2019-02-10T01:30:01.315Z,77.39
2019-02-10T01:31:01.295Z,77.29
2019-02-10T01:32:01.284Z,78.11
2019-02-10T01:33:01.274Z,77.33
2019-02-10T01:34:01.263Z,77.33
2019-02-10T01:35:01.265Z,77.74
2019-02-10T01:36:01.241Z,77.33
2019-02-10T01:37:01.230Z,77.94
2019-02-10T01:38:01.220Z,78.15
2019-02-10T01:39:01.209Z,77.94
2019-02-10T01:40:01.211Z,78.15
2019-02-10T01:41:01.188Z,78.25
2019-02-10T01:42:01.179Z,78.39
2019-02-10T01:43:01.165Z,78.60
2019-02-10T01:44:01.155Z,79.02
2019-02-10T01:45:01.154Z,79.05
2019-02-10T01:46:01.134Z,78.91
2019-02-10T01:47:01.124Z,79.05
2019-02-10T01:48:01.114Z,79.88
2019-02-10T01:49:01.103Z,79.57
2019-02-10T01:50:01.101Z,79.67
2019-02-10T01:51:01.080Z,79.77
2019-02-10T01:52:01.071Z,79.60
2019-02-10T01:53:01.061Z,81.02
2019-02-10T01:54:01.054Z,80.95
2019-02-10T01:55:01.050Z,80.43
2019-02-10T01:56:01.029Z,80.12
2019-02-10T01:57:01.017Z,80.54
2019-02-10T01:58:01.007Z,80.54
2019-02-10T01:59:00.999Z,80.54
2019-02-10T02:00:00.993Z,80.95
2019-02-10T02:01:00.973Z,80.85
2019-02-10T02:02:00.963Z,80.54
2019-02-10T02:03:00.952Z,80.95
2019-02-10T02:04:00.942Z,80.22
2019-02-10T02:05:00.940Z,80.22
2019-02-10T02:06:00.923Z,80.33
2019-02-10T02:07:00.911Z,80.12
2019-02-10T02:08:00.899Z,80.64
2019-02-10T02:09:00.888Z,80.33
2019-02-10T02:10:00.887Z,80.95
2019-02-10T02:11:00.866Z,80.74
2019-02-10T02:12:00.855Z,80.74
2019-02-10T02:13:00.845Z,81.05
2019-02-10T02:14:00.838Z,80.64
2019-02-10T02:15:00.831Z,81.61
2019-02-10T02:16:00.815Z,81.30
2019-02-10T02:17:00.803Z,81.61
2019-02-10T02:18:00.792Z,81.61
2019-02-10T02:19:00.781Z,81.51
2019-02-10T02:20:00.802Z,82.44
2019-02-10T02:21:00.759Z,81.82
2019-02-10T02:22:00.754Z,82.65
2019-02-10T02:23:00.746Z,81.82
2019-02-10T02:24:00.728Z,82.65
2019-02-10T02:25:00.836Z,82.37
2019-02-10T02:26:00.706Z,82.37
2019-02-10T02:27:00.698Z,82.48
2019-02-10T02:28:00.685Z,82.37
2019-02-10T02:29:00.675Z,82.68
2019-02-10T02:30:00.673Z,82.68
2019-02-10T02:31:00.670Z,82.48
2019-02-10T02:32:00.643Z,82.58
2019-02-10T02:33:00.632Z,82.58
2019-02-10T02:34:00.624Z,82.54
2019-02-10T02:35:00.625Z,82.37
2019-02-10T02:36:00.602Z,82.44
2019-02-10T02:37:07.596Z,82.44
2019-02-10T02:38:01.579Z,82.44
2019-02-10T02:39:00.571Z,81.34
2019-02-10T02:40:00.566Z,81.61
2019-02-10T02:41:00.543Z,81.51
2019-02-10T02:42:00.534Z,82.48
2019-02-10T02:43:00.527Z,82.68
2019-02-10T02:44:00.517Z,82.48
2019-02-10T02:45:00.510Z,82.37
2019-02-10T02:46:00.490Z,82.17
2019-02-10T02:47:00.479Z,82.37
2019-02-10T02:48:00.473Z,82.37
2019-02-10T02:49:00.459Z,82.58
2019-02-10T02:50:00.502Z,82.48
2019-02-10T02:51:00.965Z,82.58
2019-02-10T02:52:00.429Z,82.37
2019-02-10T02:53:00.421Z,82.58
2019-02-10T02:54:00.405Z,82.37
2019-02-10T02:55:00.411Z,82.58
2019-02-10T02:56:00.383Z,82.58
2019-02-10T02:57:00.372Z,82.37
2019-02-10T02:58:00.360Z,82.37
2019-02-10T02:59:00.349Z,82.58
2019-02-10T03:00:00.499Z,82.68
2019-02-10T03:01:00.330Z,82.58
2019-02-10T03:02:00.319Z,82.37
2019-02-10T03:03:00.321Z,82.89
2019-02-10T03:04:00.297Z,82.68
2019-02-10T03:05:00.355Z,82.06
2019-02-10T03:06:00.282Z,82.68
2019-02-10T03:07:00.266Z,82.37
2019-02-10T03:08:00.255Z,82.48
2019-02-10T03:09:00.252Z,82.27
2019-02-10T03:10:00.292Z,82.58
2019-02-10T03:11:00.229Z,82.68
2019-02-10T03:12:00.217Z,82.68
2019-02-10T03:13:00.202Z,82.48
2019-02-10T03:14:00.188Z,82.48
2019-02-10T03:15:00.344Z,82.37
2019-02-10T03:16:00.174Z,82.37
2019-02-10T03:17:00.155Z,82.58
2019-02-10T03:18:00.146Z,82.68
2019-02-10T03:19:00.133Z,82.27
2019-02-10T03:20:00.286Z,82.58
2019-02-10T03:21:00.130Z,81.92
2019-02-10T03:22:00.105Z,81.54
2019-02-10T03:23:00.102Z,81.54
2019-02-10T03:24:00.079Z,81.65
2019-02-10T03:25:00.149Z,82.06
2019-02-10T03:26:00.081Z,82.58
2019-02-10T03:27:00.047Z,82.17
2019-02-10T03:28:00.041Z,82.37
2019-02-10T03:29:00.027Z,82.37
2019-02-10T03:30:00.013Z,82.37
2019-02-10T03:31:00.012Z,82.37
2019-02-10T03:31:59.998Z,82.62
2019-02-10T03:32:59.982Z,82.62
2019-02-10T03:33:59.975Z,83.03
2019-02-10T03:34:59.970Z,83.03
2019-02-10T03:35:59.962Z,83.03
2019-02-10T03:36:59.941Z,83.24
2019-02-10T03:37:59.930Z,83.34
2019-02-10T03:38:59.916Z,83.03
2019-02-10T03:39:59.906Z,83.17
2019-02-10T03:40:59.905Z,83.03
2019-02-10T03:41:59.884Z,82.82
2019-02-10T03:42:59.874Z,83.17
2019-02-10T03:43:59.861Z,83.24
2019-02-10T03:44:59.851Z,82.93
2019-02-10T03:45:59.850Z,82.72
2019-02-10T03:46:59.830Z,82.82
2019-02-10T03:47:59.818Z,83.03
2019-02-10T03:48:59.821Z,82.93
2019-02-10T03:49:59.798Z,82.93
2019-02-10T03:50:59.794Z,82.51
2019-02-10T03:51:59.782Z,82.10
2019-02-10T03:52:59.766Z,82.62
2019-02-10T03:53:59.755Z,82.82
2019-02-10T03:54:59.745Z,82.72
2019-02-10T03:55:59.744Z,83.14
2019-02-10T03:56:59.723Z,83.38
2019-02-10T03:57:59.710Z,83.24
2019-02-10T03:58:59.703Z,83.24
2019-02-10T03:59:59.691Z,82.72
2019-02-10T04:00:59.686Z,83.03
2019-02-10T04:01:59.666Z,82.82
2019-02-10T04:02:59.656Z,83.03
2019-02-10T04:03:59.644Z,82.51
2019-02-10T04:04:59.638Z,82.37
2019-02-10T04:05:59.630Z,82.06
2019-02-10T04:06:59.612Z,82.41
2019-02-10T04:07:59.602Z,82.72
2019-02-10T04:08:59.593Z,82.82
2019-02-10T04:09:59.578Z,82.51
2019-02-10T04:10:59.579Z,83.28
2019-02-10T04:11:59.557Z,83.14
2019-02-10T04:12:59.548Z,82.82
2019-02-10T04:13:59.535Z,82.62
2019-02-10T04:14:59.526Z,83.14
2019-02-10T04:15:59.530Z,83.03
2019-02-10T04:16:59.506Z,83.24
2019-02-10T04:17:59.496Z,83.07
2019-02-10T04:18:59.483Z,83.07
2019-02-10T04:19:59.470Z,83.17
2019-02-10T04:20:59.468Z,83.28
2019-02-10T04:21:59.450Z,83.34
2019-02-10T04:22:59.438Z,83.14
2019-02-10T04:23:59.433Z,83.28
2019-02-10T04:24:59.423Z,83.14
2019-02-10T04:25:59.413Z,82.72
2019-02-10T04:26:59.395Z,83.14
2019-02-10T04:27:59.387Z,83.07
2019-02-10T04:28:59.373Z,83.03
2019-02-10T04:29:59.362Z,83.03
2019-02-10T04:30:59.361Z,83.59
2019-02-10T04:31:59.341Z,83.55
2019-02-10T04:32:59.330Z,82.93
2019-02-10T04:33:59.329Z,83.24
2019-02-10T04:34:59.309Z,83.14
2019-02-10T04:35:59.309Z,82.93
2019-02-10T04:36:59.286Z,83.17
2019-02-10T04:37:59.275Z,82.86
2019-02-10T04:38:59.267Z,83.28
2019-02-10T04:39:59.273Z,83.55
2019-02-10T04:40:59.254Z,84.11
2019-02-10T04:41:59.232Z,83.38
2019-02-10T04:42:59.222Z,83.90
2019-02-10T04:43:59.209Z,84.00
2019-02-10T04:44:59.199Z,84.11
2019-02-10T04:45:59.206Z,83.69
2019-02-10T04:46:59.197Z,83.59
2019-02-10T04:47:59.168Z,83.17
2019-02-10T04:48:59.156Z,83.69
2019-02-10T04:49:59.146Z,83.48
2019-02-10T04:50:59.144Z,83.90
2019-02-10T04:51:59.126Z,83.69
2019-02-10T04:52:59.112Z,84.73
2019-02-10T04:53:59.103Z,84.63
2019-02-10T04:54:59.091Z,84.63
2019-02-10T04:55:59.109Z,84.52
2019-02-10T04:56:59.073Z,84.94
2019-02-10T04:57:59.059Z,84.77
2019-02-10T04:58:59.047Z,84.94
2019-02-10T04:59:59.038Z,84.83
2019-02-10T05:00:59.030Z,84.67
2019-02-10T05:01:59.026Z,84.67
2019-02-10T05:02:59.004Z,84.52
2019-02-10T05:03:58.993Z,85.14
2019-02-10T05:04:58.983Z,84.73
2019-02-10T05:05:58.974Z,85.04
2019-02-10T05:06:58.970Z,84.94
2019-02-10T05:07:58.951Z,85.04
2019-02-10T05:08:58.941Z,84.83
2019-02-10T05:09:58.930Z,84.21
2019-02-10T05:10:58.918Z,83.80
2019-02-10T05:11:58.915Z,84.21
2019-02-10T05:12:58.898Z,84.11
2019-02-10T05:13:58.884Z,84.00
2019-02-10T05:14:58.875Z,85.04
2019-02-10T05:15:58.869Z,84.63
2019-02-10T05:16:58.862Z,84.94
2019-02-10T05:17:58.863Z,84.56
2019-02-10T05:18:58.833Z,84.88
2019-02-10T05:19:58.820Z,84.63
2019-02-10T05:20:58.813Z,84.63
2019-02-10T05:21:58.807Z,84.94
2019-02-10T05:22:58.787Z,84.11
2019-02-10T05:24:03.596Z,84.21
2019-02-10T05:24:58.766Z,84.31
2019-02-10T05:25:58.757Z,83.90
2019-02-10T05:26:58.781Z,83.55
2019-02-10T05:27:58.734Z,83.90
2019-02-10T05:28:58.738Z,83.69
2019-02-10T05:29:58.714Z,83.59
2019-02-10T05:30:58.715Z,83.17
2019-02-10T05:31:58.698Z,83.76
2019-02-10T05:32:58.695Z,83.17
2019-02-10T05:33:58.670Z,83.80
2019-02-10T05:34:58.658Z,83.65
2019-02-10T05:35:58.648Z,83.69
2019-02-10T05:36:58.644Z,84.00
2019-02-10T05:38:04.327Z,84.31
2019-02-10T05:38:59.617Z,84.73
2019-02-10T05:39:58.603Z,85.04
2019-02-10T05:40:58.591Z,84.28
2019-02-10T05:41:58.593Z,84.21
2019-02-10T05:42:58.569Z,83.48
2019-02-10T05:43:58.562Z,83.65
2019-02-10T05:44:58.547Z,83.69
2019-02-10T05:45:58.540Z,84.00
2019-02-10T05:46:58.538Z,84.00
2019-02-10T05:47:58.518Z,84.94
2019-02-10T05:48:58.512Z,84.83
2019-02-10T05:49:58.493Z,84.94
2019-02-10T05:50:58.482Z,83.86
2019-02-10T05:51:58.487Z,83.90
2019-02-10T05:52:58.462Z,83.97
2019-02-10T05:53:58.457Z,83.97
2019-02-10T05:54:58.439Z,83.76
2019-02-10T05:55:58.427Z,83.28
2019-02-10T05:56:58.429Z,83.76
2019-02-10T05:57:58.408Z,83.97
2019-02-10T05:58:58.430Z,83.65
2019-02-10T05:59:58.385Z,83.65
2019-02-10T06:00:58.373Z,83.45
2019-02-10T06:01:58.371Z,83.62
2019-02-10T06:02:58.351Z,83.31
2019-02-10T06:03:58.341Z,82.93
2019-02-10T06:04:58.329Z,83.10
2019-02-10T06:05:58.319Z,83.34
2019-02-10T06:06:58.318Z,83.24
2019-02-10T06:07:58.302Z,83.03
2019-02-10T06:08:58.290Z,83.03
2019-02-10T06:09:58.279Z,83.20
2019-02-10T06:10:58.271Z,83.62
2019-02-10T06:11:58.266Z,83.31
2019-02-10T06:12:58.269Z,82.89
2019-02-10T06:13:58.233Z,82.89
2019-02-10T06:14:58.222Z,83.20
2019-02-10T06:15:58.211Z,82.68
2019-02-10T06:16:58.209Z,82.68
2019-02-10T06:17:58.189Z,82.58
2019-02-10T06:18:58.178Z,82.65
2019-02-10T06:19:58.169Z,82.68
2019-02-10T06:20:58.157Z,82.06
2019-02-10T06:21:58.159Z,82.06
2019-02-10T06:22:58.137Z,82.34
2019-02-10T06:23:58.125Z,82.34
2019-02-10T06:24:58.113Z,82.23
2019-02-10T06:25:58.102Z,82.54
2019-02-10T06:26:58.102Z,82.44
2019-02-10T06:27:58.082Z,82.34
2019-02-10T06:28:58.071Z,82.54
2019-02-10T06:29:58.062Z,82.13
2019-02-10T06:30:58.051Z,82.23
2019-02-10T06:31:58.047Z,82.54
2019-02-10T06:32:58.027Z,81.71
2019-02-10T06:33:58.015Z,82.54
2019-02-10T06:34:58.017Z,82.54
2019-02-10T06:35:57.999Z,81.71
2019-02-10T06:36:57.995Z,81.20
2019-02-10T06:37:57.975Z,81.82
2019-02-10T06:38:57.977Z,82.34
2019-02-10T06:39:57.953Z,82.34
2019-02-10T06:40:57.943Z,82.44
2019-02-10T06:41:57.934Z,82.23
2019-02-10T06:42:57.928Z,82.44
2019-02-10T06:43:57.914Z,82.65
2019-02-10T06:44:57.898Z,82.68
2019-02-10T06:45:57.888Z,82.54
2019-02-10T06:46:57.878Z,82.34
2019-02-10T06:47:57.937Z,82.34
2019-02-10T06:48:57.856Z,82.54
2019-02-10T06:49:57.845Z,82.34
2019-02-10T06:50:57.836Z,82.44
2019-02-10T06:51:57.824Z,82.54
2019-02-10T06:52:57.824Z,82.65
2019-02-10T06:53:57.803Z,82.23
2019-02-10T06:54:57.794Z,82.34
2019-02-10T06:55:57.781Z,82.86
2019-02-10T06:56:57.772Z,82.44
2019-02-10T06:57:57.770Z,81.61
2019-02-10T06:58:57.748Z,82.54
2019-02-10T06:59:57.739Z,82.44
2019-02-10T07:00:57.729Z,82.44
2019-02-10T07:01:57.719Z,82.54
2019-02-10T07:02:57.715Z,82.34
2019-02-10T07:03:57.696Z,82.44
2019-02-10T07:04:57.684Z,82.54
2019-02-10T07:05:57.674Z,82.34
2019-02-10T07:06:57.665Z,82.44
2019-02-10T07:07:57.661Z,82.23
2019-02-10T07:08:57.641Z,82.65
2019-02-10T07:09:57.631Z,82.54
2019-02-10T07:10:57.620Z,81.82
2019-02-10T07:11:57.610Z,81.51
2019-02-10T07:12:57.606Z,81.47
2019-02-10T07:13:57.589Z,81.47
2019-02-10T07:14:57.577Z,81.68
2019-02-10T07:15:57.571Z,82.29
2019-02-10T07:16:57.554Z,81.57
2019-02-10T07:17:57.564Z,81.26
2019-02-10T07:18:57.539Z,81.68
2019-02-10T07:19:57.522Z,81.26
2019-02-10T07:20:57.512Z,82.40
2019-02-10T07:21:57.501Z,82.29
2019-02-10T07:22:57.492Z,82.19
2019-02-10T07:23:57.493Z,81.78
2019-02-10T07:24:57.468Z,80.95
2019-02-10T07:25:57.457Z,81.02
2019-02-10T07:26:57.448Z,81.78
2019-02-10T07:27:57.437Z,82.50
2019-02-10T07:28:57.439Z,82.46
2019-02-10T07:29:57.415Z,82.36
2019-02-10T07:30:57.405Z,81.74
2019-02-10T07:31:57.393Z,82.60
2019-02-10T07:32:57.382Z,82.36
2019-02-10T07:33:58.556Z,81.57
2019-02-10T07:34:57.367Z,81.33
2019-02-10T07:35:57.353Z,80.33
2019-02-10T07:36:57.340Z,80.85
2019-02-10T07:37:57.333Z,81.33
2019-02-10T07:38:57.329Z,81.54
2019-02-10T07:39:57.310Z,81.23
2019-02-10T07:40:57.301Z,81.43
2019-02-10T07:41:57.287Z,81.12
2019-02-10T07:42:57.277Z,80.29
2019-02-10T07:43:57.274Z,80.71
2019-02-10T07:44:57.256Z,80.60
2019-02-10T07:45:57.246Z,80.81
2019-02-10T07:46:57.233Z,81.64
2019-02-10T07:47:57.222Z,80.29
2019-02-10T07:48:57.220Z,80.81
2019-02-10T07:49:57.200Z,80.60
2019-02-10T07:50:57.190Z,81.09
2019-02-10T07:51:57.183Z,80.67
2019-02-10T07:52:57.169Z,80.57
2019-02-10T07:53:57.165Z,80.77
2019-02-10T07:54:57.151Z,80.46
2019-02-10T07:55:57.135Z,80.15
2019-02-10T07:56:57.125Z,80.57
2019-02-10T07:57:57.117Z,80.26
2019-02-10T07:58:57.125Z,80.57
2019-02-10T07:59:57.092Z,80.26
2019-02-10T08:00:57.089Z,80.46
2019-02-10T08:01:57.073Z,81.09
2019-02-10T08:02:57.062Z,81.09
2019-02-10T08:03:57.059Z,80.46
2019-02-10T08:04:57.040Z,81.35
2019-02-10T08:05:57.029Z,80.67
2019-02-10T08:06:57.019Z,81.19
2019-02-10T08:07:57.008Z,80.57
2019-02-10T08:08:57.006Z,81.05
2019-02-10T08:09:56.990Z,80.88
2019-02-10T08:10:56.975Z,81.15
2019-02-10T08:11:56.967Z,81.35
2019-02-10T08:12:56.954Z,81.29
2019-02-10T08:13:56.954Z,80.94
2019-02-10T08:14:56.936Z,80.84
2019-02-10T08:15:56.923Z,79.29
2019-02-10T08:16:56.912Z,80.74
2019-02-10T08:17:56.901Z,79.60
2019-02-10T08:18:56.898Z,79.70
2019-02-10T08:19:56.882Z,79.91
2019-02-10T08:20:56.873Z,79.49
2019-02-10T08:21:56.859Z,79.49
2019-02-10T08:22:56.847Z,79.77
2019-02-10T08:23:56.845Z,80.08
2019-02-10T08:24:56.826Z,80.18
2019-02-10T08:25:56.826Z,81.01
2019-02-10T08:26:56.804Z,79.36
2019-02-10T08:27:56.795Z,80.80
2019-02-10T08:28:56.827Z,80.90
2019-02-10T08:29:56.774Z,80.08
2019-02-10T08:30:56.762Z,80.39
2019-02-10T08:31:56.752Z,81.32
2019-02-10T08:32:56.741Z,80.80
2019-02-10T08:33:57.270Z,82.15
2019-02-10T08:34:56.726Z,82.15
2019-02-10T08:35:56.708Z,82.97
2019-02-10T08:36:56.697Z,82.35
2019-02-10T08:37:56.685Z,83.80
2019-02-10T08:38:56.681Z,83.94
2019-02-10T08:39:56.675Z,84.42
2019-02-10T08:40:56.657Z,84.97
2019-02-10T08:41:56.643Z,84.87
2019-02-10T08:42:56.634Z,84.66
2019-02-10T08:43:56.622Z,84.63
2019-02-10T08:44:56.618Z,85.18
2019-02-10T08:45:56.602Z,84.73
2019-02-10T08:46:56.593Z,86.21
2019-02-10T08:47:56.579Z,86.83
2019-02-10T08:48:56.573Z,85.80
2019-02-10T08:49:56.578Z,86.73
2019-02-10T08:50:56.548Z,85.49
2019-02-10T08:51:56.539Z,86.21
2019-02-10T08:52:56.526Z,87.04
2019-02-10T08:53:56.516Z,86.52
2019-02-10T08:54:56.513Z,86.73
2019-02-10T08:55:56.501Z,88.49
2019-02-10T08:56:56.483Z,89.11
2019-02-10T08:57:56.470Z,89.94
2019-02-10T08:58:56.460Z,88.90
2019-02-10T08:59:56.458Z,88.80
2019-02-10T09:00:56.438Z,88.90
2019-02-10T09:01:56.443Z,89.83
2019-02-10T09:02:56.421Z,89.94
2019-02-10T09:03:56.411Z,90.14
2019-02-10T09:04:56.412Z,90.04
2019-02-10T09:05:56.386Z,89.73
2019-02-10T09:06:56.382Z,89.94
2019-02-10T09:07:56.366Z,90.25
2019-02-10T09:09:02.466Z,89.52
2019-02-10T09:09:57.350Z,89.94
2019-02-10T09:10:56.333Z,90.14
2019-02-10T09:11:56.323Z,91.07
2019-02-10T09:12:56.319Z,90.97
2019-02-10T09:13:56.304Z,90.45
2019-02-10T09:14:56.298Z,90.87
2019-02-10T09:15:56.278Z,91.17
2019-02-10T09:16:56.266Z,90.77
2019-02-10T09:17:56.257Z,91.28
2019-02-10T09:18:56.248Z,90.45
2019-02-10T09:19:56.245Z,91.07
2019-02-10T09:20:56.224Z,91.49
2019-02-10T09:21:56.213Z,91.80
2019-02-10T09:22:56.202Z,92.21
2019-02-10T09:23:56.200Z,91.38
2019-02-10T09:24:56.225Z,91.94
2019-02-10T09:25:56.170Z,92.15
2019-02-10T09:26:56.158Z,92.52
2019-02-10T09:27:56.147Z,92.67
2019-02-10T09:28:56.137Z,92.67
2019-02-10T09:29:56.130Z,92.15
2019-02-10T09:30:56.126Z,91.88
2019-02-10T09:31:56.105Z,92.46
2019-02-10T09:32:56.093Z,92.57
2019-02-10T09:33:56.085Z,91.99
2019-02-10T09:34:56.077Z,92.61
2019-02-10T09:35:56.074Z,91.94
2019-02-10T09:36:56.060Z,92.30
2019-02-10T09:37:56.039Z,92.30
2019-02-10T09:38:56.029Z,92.19
2019-02-10T09:39:56.023Z,93.74
2019-02-10T09:40:56.015Z,94.37
2019-02-10T09:41:56.002Z,93.95
2019-02-10T09:42:55.990Z,93.33
2019-02-10T09:43:55.979Z,93.74
2019-02-10T09:44:55.965Z,93.54
2019-02-10T09:45:55.963Z,94.06
2019-02-10T09:46:55.943Z,93.74
2019-02-10T09:47:55.935Z,93.43
2019-02-10T09:48:55.923Z,94.16
2019-02-10T09:49:55.915Z,93.85
2019-02-10T09:50:55.913Z,93.85
2019-02-10T09:51:55.892Z,93.54
2019-02-10T09:52:55.883Z,93.54
2019-02-10T09:53:55.869Z,94.06
2019-02-10T09:54:55.859Z,93.70
2019-02-10T09:55:55.856Z,93.54
2019-02-10T09:56:55.838Z,93.12
2019-02-10T09:57:55.829Z,93.64
2019-02-10T09:58:55.817Z,93.95
2019-02-10T09:59:55.810Z,94.06
2019-02-10T10:00:55.807Z,93.80
2019-02-10T10:01:55.784Z,93.64
2019-02-10T10:02:55.774Z,93.85
2019-02-10T10:03:55.763Z,93.85
2019-02-10T10:04:55.751Z,93.74
2019-02-10T10:05:55.752Z,94.06
2019-02-10T10:06:55.730Z,94.47
2019-02-10T10:07:55.721Z,94.06
2019-02-10T10:08:55.709Z,94.06
2019-02-10T10:09:55.701Z,94.26
2019-02-10T10:10:55.700Z,94.94
2019-02-10T10:11:55.680Z,94.37
2019-02-10T10:12:55.666Z,94.16
2019-02-10T10:13:55.700Z,94.06
2019-02-10T10:14:55.646Z,93.43
2019-02-10T10:15:55.643Z,94.06
2019-02-10T10:16:55.623Z,94.12
2019-02-10T10:17:55.615Z,94.32
2019-02-10T10:18:55.603Z,94.32
2019-02-10T10:19:55.593Z,93.54
2019-02-10T10:20:55.589Z,93.80
2019-02-10T10:21:55.571Z,94.01
2019-02-10T10:22:55.563Z,94.12
2019-02-10T10:23:55.548Z,94.32
2019-02-10T10:24:55.539Z,94.12
2019-02-10T10:25:55.535Z,94.22
2019-02-10T10:26:55.517Z,94.12
2019-02-10T10:27:55.515Z,94.43
2019-02-10T10:28:55.498Z,94.12
2019-02-10T10:29:55.484Z,94.12
2019-02-10T10:30:55.482Z,93.80
2019-02-10T10:31:55.463Z,94.12
2019-02-10T10:32:55.452Z,94.43
2019-02-10T10:33:55.443Z,94.22
2019-02-10T10:34:55.431Z,94.12
2019-02-10T10:35:55.435Z,94.94
2019-02-10T10:36:55.410Z,94.94
2019-02-10T10:37:55.398Z,94.94
2019-02-10T10:38:55.387Z,94.84
2019-02-10T10:39:55.378Z,94.94
2019-02-10T10:40:55.376Z,94.73
2019-02-10T10:41:55.356Z,94.94
2019-02-10T10:42:55.349Z,94.94
2019-02-10T10:43:55.343Z,95.15
2019-02-10T10:44:55.324Z,94.94
2019-02-10T10:45:55.337Z,94.84
2019-02-10T10:46:55.327Z,94.63
2019-02-10T10:47:55.293Z,94.63
2019-02-10T10:48:55.282Z,94.73
2019-02-10T10:49:55.271Z,94.63
2019-02-10T10:50:55.268Z,94.53
2019-02-10T10:51:55.249Z,94.94
2019-02-10T10:52:55.243Z,94.73
2019-02-10T10:53:55.228Z,95.15
2019-02-10T10:54:55.216Z,95.04
2019-02-10T10:55:55.214Z,95.04
2019-02-10T10:56:55.197Z,95.00
2019-02-10T10:57:55.188Z,95.25
2019-02-10T10:58:55.174Z,94.94
2019-02-10T10:59:55.173Z,94.63
2019-02-10T11:00:55.291Z,94.94
2019-02-10T11:01:55.142Z,94.73
2019-02-10T11:02:55.134Z,94.90
2019-02-10T11:03:55.120Z,94.84
2019-02-10T11:04:55.109Z,94.48
2019-02-10T11:05:55.107Z,94.48
2019-02-10T11:06:55.088Z,95.00
2019-02-10T11:07:55.076Z,95.21
2019-02-10T11:08:55.067Z,95.04
2019-02-10T11:09:55.076Z,94.94
2019-02-10T11:10:55.105Z,95.10
2019-02-10T11:11:55.034Z,95.21
2019-02-10T11:12:55.025Z,95.04
2019-02-10T11:13:55.016Z,95.04
2019-02-10T11:14:55.003Z,95.31
2019-02-10T11:15:54.994Z,96.08
2019-02-10T11:16:54.989Z,95.77
2019-02-10T11:17:54.970Z,96.08
2019-02-10T11:18:54.960Z,95.31
2019-02-10T11:19:54.951Z,95.00
2019-02-10T11:20:54.937Z,95.10
2019-02-10T11:21:54.937Z,95.42
2019-02-10T11:22:54.918Z,95.00
2019-02-10T11:23:54.905Z,95.00
2019-02-10T11:24:54.895Z,94.79
2019-02-10T11:25:54.885Z,95.10
2019-02-10T11:26:54.883Z,95.73
2019-02-10T11:27:54.869Z,95.94
2019-02-10T11:28:54.852Z,95.10
2019-02-10T11:29:54.842Z,94.90
2019-02-10T11:30:54.833Z,95.89
2019-02-10T11:31:54.829Z,95.57
2019-02-10T11:32:54.815Z,95.62
2019-02-10T11:33:54.799Z,94.85
2019-02-10T11:34:54.787Z,95.06
2019-02-10T11:35:54.778Z,95.57
2019-02-10T11:36:54.776Z,95.99
2019-02-10T11:37:54.760Z,95.57
2019-02-10T11:38:54.744Z,95.68
2019-02-10T11:39:54.737Z,94.96
2019-02-10T11:40:54.725Z,94.85
2019-02-10T11:41:54.721Z,94.50
2019-02-10T11:42:54.703Z,94.50
2019-02-10T11:43:54.692Z,94.75
2019-02-10T11:44:54.681Z,94.81
2019-02-10T11:45:54.669Z,94.19
2019-02-10T11:46:54.671Z,94.29
2019-02-10T11:47:54.649Z,93.98
2019-02-10T11:48:54.638Z,94.19
2019-02-10T11:49:54.628Z,94.92
2019-02-10T11:50:54.617Z,94.71
2019-02-10T11:51:54.615Z,94.60
2019-02-10T11:52:54.594Z,94.60
2019-02-10T11:53:54.585Z,94.46
2019-02-10T11:54:54.574Z,94.71
2019-02-10T11:55:54.564Z,94.81
2019-02-10T11:56:54.584Z,94.97
2019-02-10T11:57:54.541Z,93.63
2019-02-10T11:58:54.530Z,93.43
2019-02-10T11:59:54.518Z,94.67
2019-02-10T12:00:54.515Z,94.77
2019-02-10T12:01:54.506Z,94.67
2019-02-10T12:02:54.495Z,94.87
2019-02-10T12:03:54.479Z,94.35
2019-02-10T12:04:54.464Z,94.77
2019-02-10T12:05:54.456Z,94.72
2019-02-10T12:06:54.445Z,94.56
2019-02-10T12:07:54.441Z,94.62
2019-02-10T12:08:54.425Z,94.77
2019-02-10T12:09:54.413Z,94.62
2019-02-10T12:10:54.399Z,94.42
2019-02-10T12:11:54.389Z,94.42
2019-02-10T12:12:54.388Z,94.93
2019-02-10T12:13:54.372Z,94.82
2019-02-10T12:14:54.360Z,93.79
2019-02-10T12:15:54.347Z,93.79
2019-02-10T12:16:54.333Z,93.79
2019-02-10T12:17:54.330Z,94.52
2019-02-10T12:18:54.316Z,94.72
2019-02-10T12:19:54.305Z,94.10
2019-02-10T12:20:54.291Z,94.10
2019-02-10T12:21:54.280Z,94.82
2019-02-10T12:22:54.278Z,94.72
2019-02-10T12:23:54.263Z,94.10
2019-02-10T12:24:54.250Z,93.79
2019-02-10T12:25:54.238Z,94.68
2019-02-10T12:26:54.226Z,94.00
2019-02-10T12:27:54.223Z,93.59
2019-02-10T12:28:54.203Z,94.42
2019-02-10T12:29:54.194Z,94.06
2019-02-10T12:30:54.183Z,93.79
2019-02-10T12:31:54.177Z,94.31
2019-02-10T12:32:54.168Z,94.31
2019-02-10T12:33:54.163Z,93.59
2019-02-10T12:34:54.138Z,93.34
2019-02-10T12:35:58.376Z,93.75
2019-02-10T12:36:54.118Z,93.54
2019-02-10T12:37:54.116Z,93.65
2019-02-10T12:38:54.095Z,93.85
2019-02-10T12:39:59.665Z,94.47
2019-02-10T12:40:55.072Z,94.57
2019-02-10T12:41:54.064Z,94.57
2019-02-10T12:42:54.060Z,93.85
2019-02-10T12:43:54.044Z,93.65
2019-02-10T12:44:54.034Z,94.06
2019-02-10T12:45:54.022Z,94.17
2019-02-10T12:46:54.014Z,93.85
2019-02-10T12:47:54.007Z,93.85
2019-02-10T12:48:53.987Z,94.57
2019-02-10T12:49:53.976Z,93.85
2019-02-10T12:50:53.964Z,93.44
2019-02-10T12:51:53.952Z,94.37